Aviation Digital Data Service (ADDS)

Output produced by METARs form (2156 UTC 24 March 2019)
found at http://www.aviationweather.gov/metar/data/
 
EKYT 242150Z AUTO 21012KT 9999 -SHRA FEW017/// SCT021/// BKN027/// BKN040/// 05/03 Q1009
TAF EKYT 242021Z 2421/2518 25014KT 9999 BKN030 
     TEMPO 2421/2502 3000 SHRASN BKN008 SCT020CB 
     BECMG 2506/2508 36012KT 
     TEMPO 2508/2512 36015G27KT
       
EKAH 242150Z AUTO 22006KT 170V260 9999NDV FEW018/// SCT028/// BKN059/// BKN071/// 05/03 Q1012
TAF EKAH 241713Z 2418/2518 25012KT 9999 BKN030 
     TEMPO 2418/2420 24015G25KT SHRA SCT020CB 
     TEMPO 2420/2501 3000 SHRAGS BKN008 SCT020CB 
     TEMPO 2501/2512 BKN012 SCT020TCU 
     BECMG 2508/2511 36015KT
       
EKBI 242150Z AUTO 22010KT 180V240 9999 RA OVC013/// 05/04 Q1012
TAF EKBI 241713Z 2418/2518 25015KT 9999 BKN030 
     TEMPO 2418/2420 SCT020TCU 
     TEMPO 2420/2424 4000 SHRAGS BKN008 SCT020CB 
     TEMPO 2500/2512 BKN012 SCT020TCU 
     BECMG 2508/2511 35015KT
       
EKRN 242150Z AUTO 26014KT 9999 OVC066/// 05/02 Q1015
TAF EKRN 241725Z 2418/2423 25015KT 9999 SCT020
       
EKEB 242150Z AUTO 22013KT 9000 -SHRA BKN013/// 06/05 Q1012
TAF EKEB 241725Z 2418/2423 24014KT 9999 SCT025 
     TEMPO 2418/2423 3000 SHRAGS BKN008 SCT020CB
       
EKKA 242150Z AUTO 22011KT 6000NDV -SHRA BKN012/// 05/04 Q1010
TAF EKKA 242021Z 2421/2518 24014KT 9999 BKN030 
     TEMPO 2421/2502 3000 SHRASN BKN008 SCT020CB 
     BECMG 2506/2508 35012KT 
     TEMPO 2508/2512 36018G28KT 5000 -SHRAGS BKN012TCU 
     TEMPO 2512/2516 35015G25KT
       
EKCH 242150Z AUTO 24012KT 9999NDV SCT140/// 05/02 Q1014 NOSIG
TAF EKCH 241713Z 2418/2518 24012KT 9999 SCT020 
     TEMPO 2418/2424 FEW020CB 
     TEMPO 2500/2504 4000 SHRAGS BKN008 SCT020CB 
     TEMPO 2504/2512 SHRAGS BKN012 SCT020CB 
     BECMG 2508/2511 32015KT
       
EKVD 242150Z AUTO 23014KT //// ///////// 05/04 Q1013
TAF EKVD 241152Z 2412/2416 25013KT 9999 SCT025 
     TEMPO 2412/2416 SCT020TCU
       
EKRK 242150Z AUTO 24009KT 9999NDV FEW130/// 04/02 Q1014
TAF EKRK 242020Z 2421/2506 24010KT 9999 SCT020 
     TEMPO 2423/2506 4000 SHRAGS BKN008 SCT020CB 
     BECMG 2504/2506 30012KT
       
EKSP 242150Z 23013KT 9999 -SHRA SCT020CB BKN025 05/03 Q1013
TAF EKSP 242021Z 2421/2518 25014KT 9999 BKN030 
     TEMPO 2421/2502 25015G25KT 3000 SHRASN BKN008 SCT020CB 
     TEMPO 2502/2511 5000 -SHRAGS BKN012 SCT020CB 
     BECMG 2507/2509 33015KT 
     TEMPO 2511/2516 36018G28KT
       
EKSB 242150Z AUTO 23009KT 190V260 9999NDV SCT064/// BKN120/// 06/03 Q1014
TAF EKSB 241459Z 2415/2420 25012KT 9999 SCT030